sensor_id;sensor_type;location;lat;lon;timestamp;P1;durP1;ratioP1;P2;durP2;ratioP2
40162;SDS011;25881;47.462;19.304;2024-02-16T00:00:09;37.88;;;23.40;;
40162;SDS011;25881;47.462;19.304;2024-02-16T00:02:40;35.65;;;22.92;;
40162;SDS011;25881;47.462;19.304;2024-02-16T00:05:07;36.78;;;23.30;;
40162;SDS011;25881;47.462;19.304;2024-02-16T00:07:33;36.03;;;23.48;;
40162;SDS011;25881;47.462;19.304;2024-02-16T00:09:58;35.88;;;24.25;;
40162;SDS011;25881;47.462;19.304;2024-02-16T00:12:23;35.13;;;22.27;;
40162;SDS011;25881;47.462;19.304;2024-02-16T00:14:49;37.47;;;23.50;;
40162;SDS011;25881;47.462;19.304;2024-02-16T00:17:14;36.23;;;23.10;;
40162;SDS011;25881;47.462;19.304;2024-02-16T00:19:39;35.53;;;23.30;;
40162;SDS011;25881;47.462;19.304;2024-02-16T00:22:04;35.13;;;22.57;;
40162;SDS011;25881;47.462;19.304;2024-02-16T00:24:32;38.15;;;23.58;;
40162;SDS011;25881;47.462;19.304;2024-02-16T00:26:58;34.40;;;22.63;;
40162;SDS011;25881;47.462;19.304;2024-02-16T00:29:23;33.17;;;22.90;;
40162;SDS011;25881;47.462;19.304;2024-02-16T00:31:49;36.25;;;22.05;;
40162;SDS011;25881;47.462;19.304;2024-02-16T00:34:14;36.73;;;23.40;;
40162;SDS011;25881;47.462;19.304;2024-02-16T00:36:40;33.23;;;21.87;;
40162;SDS011;25881;47.462;19.304;2024-02-16T00:39:05;33.93;;;22.13;;
40162;SDS011;25881;47.462;19.304;2024-02-16T00:41:30;39.80;;;22.15;;
40162;SDS011;25881;47.462;19.304;2024-02-16T00:43:55;34.73;;;21.83;;
40162;SDS011;25881;47.462;19.304;2024-02-16T00:46:22;36.67;;;24.25;;
40162;SDS011;25881;47.462;19.304;2024-02-16T00:48:48;36.55;;;22.05;;
40162;SDS011;25881;47.462;19.304;2024-02-16T00:51:13;36.75;;;22.98;;
40162;SDS011;25881;47.462;19.304;2024-02-16T00:53:38;39.60;;;24.38;;
40162;SDS011;25881;47.462;19.304;2024-02-16T00:56:04;34.27;;;22.10;;
40162;SDS011;25881;47.462;19.304;2024-02-16T00:58:29;37.88;;;23.17;;
40162;SDS011;25881;47.462;19.304;2024-02-16T01:00:54;36.15;;;22.63;;
40162;SDS011;25881;47.462;19.304;2024-02-16T01:03:20;39.90;;;23.90;;
40162;SDS011;25881;47.462;19.304;2024-02-16T01:05:45;36.03;;;22.80;;
40162;SDS011;25881;47.462;19.304;2024-02-16T01:08:10;35.63;;;22.40;;
40162;SDS011;25881;47.462;19.304;2024-02-16T01:10:35;37.03;;;23.47;;
40162;SDS011;25881;47.462;19.304;2024-02-16T01:13:00;33.87;;;21.43;;
40162;SDS011;25881;47.462;19.304;2024-02-16T01:15:26;35.33;;;22.00;;
40162;SDS011;25881;47.462;19.304;2024-02-16T01:17:52;39.85;;;23.83;;
40162;SDS011;25881;47.462;19.304;2024-02-16T01:20:17;36.78;;;24.20;;
40162;SDS011;25881;47.462;19.304;2024-02-16T01:22:42;39.03;;;23.50;;
40162;SDS011;25881;47.462;19.304;2024-02-16T01:25:08;35.95;;;23.25;;
40162;SDS011;25881;47.462;19.304;2024-02-16T01:27:33;35.38;;;23.05;;
40162;SDS011;25881;47.462;19.304;2024-02-16T01:29:59;39.95;;;24.23;;
40162;SDS011;25881;47.462;19.304;2024-02-16T01:32:25;40.03;;;23.33;;
40162;SDS011;25881;47.462;19.304;2024-02-16T01:34:50;35.33;;;22.73;;
40162;SDS011;25881;47.462;19.304;2024-02-16T01:37:15;36.90;;;23.42;;
40162;SDS011;25881;47.462;19.304;2024-02-16T01:39:41;38.33;;;23.63;;
40162;SDS011;25881;47.462;19.304;2024-02-16T01:42:07;38.63;;;22.80;;
40162;SDS011;25881;47.462;19.304;2024-02-16T01:44:32;34.60;;;21.13;;
40162;SDS011;25881;47.462;19.304;2024-02-16T01:46:57;34.27;;;22.10;;
40162;SDS011;25881;47.462;19.304;2024-02-16T01:49:23;35.95;;;22.67;;
40162;SDS011;25881;47.462;19.304;2024-02-16T01:51:48;35.10;;;23.02;;
40162;SDS011;25881;47.462;19.304;2024-02-16T01:54:14;34.13;;;23.40;;
40162;SDS011;25881;47.462;19.304;2024-02-16T01:56:40;35.03;;;24.23;;
40162;SDS011;25881;47.462;19.304;2024-02-16T01:59:05;33.90;;;23.10;;
40162;SDS011;25881;47.462;19.304;2024-02-16T02:01:30;37.03;;;24.27;;
40162;SDS011;25881;47.462;19.304;2024-02-16T02:03:55;35.33;;;22.27;;
40162;SDS011;25881;47.462;19.304;2024-02-16T02:06:20;38.67;;;23.42;;
40162;SDS011;25881;47.462;19.304;2024-02-16T02:08:46;34.28;;;22.50;;
40162;SDS011;25881;47.462;19.304;2024-02-16T02:11:11;33.92;;;21.90;;
40162;SDS011;25881;47.462;19.304;2024-02-16T02:13:37;38.63;;;23.93;;
40162;SDS011;25881;47.462;19.304;2024-02-16T02:16:02;38.08;;;23.50;;
40162;SDS011;25881;47.462;19.304;2024-02-16T02:18:28;34.65;;;22.63;;
40162;SDS011;25881;47.462;19.304;2024-02-16T02:20:53;33.88;;;23.35;;
40162;SDS011;25881;47.462;19.304;2024-02-16T02:23:19;32.70;;;22.58;;
40162;SDS011;25881;47.462;19.304;2024-02-16T02:25:44;34.65;;;22.67;;
40162;SDS011;25881;47.462;19.304;2024-02-16T02:28:10;36.20;;;24.27;;
40162;SDS011;25881;47.462;19.304;2024-02-16T02:30:35;36.37;;;23.57;;
40162;SDS011;25881;47.462;19.304;2024-02-16T02:33:00;39.60;;;23.77;;
40162;SDS011;25881;47.462;19.304;2024-02-16T02:35:25;33.70;;;22.87;;
40162;SDS011;25881;47.462;19.304;2024-02-16T02:37:50;33.17;;;22.67;;
40162;SDS011;25881;47.462;19.304;2024-02-16T02:40:16;38.97;;;24.50;;
40162;SDS011;25881;47.462;19.304;2024-02-16T02:42:41;34.65;;;21.77;;
40162;SDS011;25881;47.462;19.304;2024-02-16T02:45:07;35.30;;;22.10;;
40162;SDS011;25881;47.462;19.304;2024-02-16T02:47:32;34.38;;;22.38;;
40162;SDS011;25881;47.462;19.304;2024-02-16T02:49:57;31.80;;;20.30;;
40162;SDS011;25881;47.462;19.304;2024-02-16T02:52:23;33.47;;;21.20;;
40162;SDS011;25881;47.462;19.304;2024-02-16T02:54:48;37.20;;;21.73;;
40162;SDS011;25881;47.462;19.304;2024-02-16T02:57:13;31.97;;;20.90;;
40162;SDS011;25881;47.462;19.304;2024-02-16T02:59:38;31.57;;;22.27;;
40162;SDS011;25881;47.462;19.304;2024-02-16T03:02:03;35.23;;;22.37;;
40162;SDS011;25881;47.462;19.304;2024-02-16T03:04:29;32.07;;;20.30;;
40162;SDS011;25881;47.462;19.304;2024-02-16T03:06:54;32.57;;;21.13;;
40162;SDS011;25881;47.462;19.304;2024-02-16T03:09:19;33.10;;;21.63;;
40162;SDS011;25881;47.462;19.304;2024-02-16T03:11:44;33.07;;;22.13;;
40162;SDS011;25881;47.462;19.304;2024-02-16T03:14:10;37.20;;;22.90;;
40162;SDS011;25881;47.462;19.304;2024-02-16T03:16:35;35.80;;;22.80;;
40162;SDS011;25881;47.462;19.304;2024-02-16T03:19:00;31.23;;;22.38;;
40162;SDS011;25881;47.462;19.304;2024-02-16T03:21:25;36.57;;;23.47;;
40162;SDS011;25881;47.462;19.304;2024-02-16T03:23:51;35.87;;;23.63;;
40162;SDS011;25881;47.462;19.304;2024-02-16T03:26:16;36.97;;;23.63;;
40162;SDS011;25881;47.462;19.304;2024-02-16T03:28:45;36.42;;;25.05;;
40162;SDS011;25881;47.462;19.304;2024-02-16T03:31:19;39.60;;;25.52;;
40162;SDS011;25881;47.462;19.304;2024-02-16T03:33:45;33.58;;;23.65;;
40162;SDS011;25881;47.462;19.304;2024-02-16T03:36:11;35.85;;;22.60;;
40162;SDS011;25881;47.462;19.304;2024-02-16T03:38:40;33.40;;;23.58;;
40162;SDS011;25881;47.462;19.304;2024-02-16T03:41:05;36.00;;;24.65;;
40162;SDS011;25881;47.462;19.304;2024-02-16T03:43:31;36.63;;;23.80;;
40162;SDS011;25881;47.462;19.304;2024-02-16T03:45:56;41.37;;;25.67;;
40162;SDS011;25881;47.462;19.304;2024-02-16T03:48:21;47.73;;;24.93;;
40162;SDS011;25881;47.462;19.304;2024-02-16T03:50:46;33.37;;;23.10;;
40162;SDS011;25881;47.462;19.304;2024-02-16T03:53:12;36.17;;;24.03;;
40162;SDS011;25881;47.462;19.304;2024-02-16T03:55:37;35.17;;;23.27;;
40162;SDS011;25881;47.462;19.304;2024-02-16T03:58:03;34.95;;;22.98;;
40162;SDS011;25881;47.462;19.304;2024-02-16T04:00:28;35.60;;;24.80;;
40162;SDS011;25881;47.462;19.304;2024-02-16T04:02:54;34.20;;;22.67;;
40162;SDS011;25881;47.462;19.304;2024-02-16T04:05:19;36.60;;;22.23;;
40162;SDS011;25881;47.462;19.304;2024-02-16T04:07:44;38.13;;;23.53;;
40162;SDS011;25881;47.462;19.304;2024-02-16T04:10:09;34.73;;;24.40;;
40162;SDS011;25881;47.462;19.304;2024-02-16T04:12:34;38.50;;;24.30;;
40162;SDS011;25881;47.462;19.304;2024-02-16T04:15:01;38.50;;;25.63;;
40162;SDS011;25881;47.462;19.304;2024-02-16T04:17:26;40.23;;;24.47;;
40162;SDS011;25881;47.462;19.304;2024-02-16T04:19:51;42.20;;;26.03;;
40162;SDS011;25881;47.462;19.304;2024-02-16T04:22:16;40.53;;;25.80;;
40162;SDS011;25881;47.462;19.304;2024-02-16T04:24:42;39.90;;;25.53;;
40162;SDS011;25881;47.462;19.304;2024-02-16T04:27:07;41.83;;;25.87;;
40162;SDS011;25881;47.462;19.304;2024-02-16T04:29:32;35.60;;;24.23;;
40162;SDS011;25881;47.462;19.304;2024-02-16T04:31:57;39.33;;;26.37;;
40162;SDS011;25881;47.462;19.304;2024-02-16T04:34:22;43.33;;;28.17;;
40162;SDS011;25881;47.462;19.304;2024-02-16T04:36:48;39.33;;;25.85;;
40162;SDS011;25881;47.462;19.304;2024-02-16T04:39:13;40.53;;;25.88;;
40162;SDS011;25881;47.462;19.304;2024-02-16T04:41:40;39.08;;;26.45;;
40162;SDS011;25881;47.462;19.304;2024-02-16T04:44:05;44.10;;;27.13;;
40162;SDS011;25881;47.462;19.304;2024-02-16T04:46:30;42.07;;;26.60;;
40162;SDS011;25881;47.462;19.304;2024-02-16T04:48:55;40.93;;;26.90;;
40162;SDS011;25881;47.462;19.304;2024-02-16T04:51:20;37.73;;;25.43;;
40162;SDS011;25881;47.462;19.304;2024-02-16T04:53:46;38.47;;;24.83;;
40162;SDS011;25881;47.462;19.304;2024-02-16T04:56:11;42.33;;;25.93;;
40162;SDS011;25881;47.462;19.304;2024-02-16T04:58:39;38.67;;;25.00;;
40162;SDS011;25881;47.462;19.304;2024-02-16T05:03:31;41.55;;;24.58;;
40162;SDS011;25881;47.462;19.304;2024-02-16T05:05:57;40.60;;;26.53;;
40162;SDS011;25881;47.462;19.304;2024-02-16T05:08:22;34.40;;;24.50;;
40162;SDS011;25881;47.462;19.304;2024-02-16T05:10:47;40.92;;;26.83;;
40162;SDS011;25881;47.462;19.304;2024-02-16T05:13:13;38.53;;;25.50;;
40162;SDS011;25881;47.462;19.304;2024-02-16T05:15:39;39.90;;;25.42;;
40162;SDS011;25881;47.462;19.304;2024-02-16T05:18:04;38.72;;;26.60;;
40162;SDS011;25881;47.462;19.304;2024-02-16T05:20:30;42.28;;;26.55;;
40162;SDS011;25881;47.462;19.304;2024-02-16T05:22:55;38.77;;;26.27;;
40162;SDS011;25881;47.462;19.304;2024-02-16T05:25:21;37.78;;;24.23;;
40162;SDS011;25881;47.462;19.304;2024-02-16T05:27:47;36.70;;;24.40;;
40162;SDS011;25881;47.462;19.304;2024-02-16T05:30:15;39.33;;;25.90;;
40162;SDS011;25881;47.462;19.304;2024-02-16T05:32:41;39.38;;;24.95;;
40162;SDS011;25881;47.462;19.304;2024-02-16T05:35:06;39.22;;;24.77;;
40162;SDS011;25881;47.462;19.304;2024-02-16T05:37:43;40.97;;;26.00;;
40162;SDS011;25881;47.462;19.304;2024-02-16T05:40:09;38.17;;;25.60;;
40162;SDS011;25881;47.462;19.304;2024-02-16T05:42:46;42.97;;;25.88;;
40162;SDS011;25881;47.462;19.304;2024-02-16T05:45:12;41.17;;;25.52;;
40162;SDS011;25881;47.462;19.304;2024-02-16T05:47:37;37.88;;;26.00;;
40162;SDS011;25881;47.462;19.304;2024-02-16T05:50:03;39.70;;;25.23;;
40162;SDS011;25881;47.462;19.304;2024-02-16T05:52:29;39.28;;;26.45;;
40162;SDS011;25881;47.462;19.304;2024-02-16T05:54:55;40.72;;;26.42;;
40162;SDS011;25881;47.462;19.304;2024-02-16T05:57:20;43.95;;;26.25;;
40162;SDS011;25881;47.462;19.304;2024-02-16T05:59:46;39.40;;;23.67;;
40162;SDS011;25881;47.462;19.304;2024-02-16T06:02:11;41.70;;;24.10;;
40162;SDS011;25881;47.462;19.304;2024-02-16T06:04:36;47.20;;;24.83;;
40162;SDS011;25881;47.462;19.304;2024-02-16T06:07:02;37.95;;;23.63;;
40162;SDS011;25881;47.462;19.304;2024-02-16T06:09:27;35.63;;;22.85;;
40162;SDS011;25881;47.462;19.304;2024-02-16T06:12:00;35.55;;;22.73;;
40162;SDS011;25881;47.462;19.304;2024-02-16T06:14:25;37.38;;;24.25;;
40162;SDS011;25881;47.462;19.304;2024-02-16T06:16:50;33.47;;;22.37;;
40162;SDS011;25881;47.462;19.304;2024-02-16T06:19:15;36.53;;;23.50;;
40162;SDS011;25881;47.462;19.304;2024-02-16T06:21:41;40.77;;;23.97;;
40162;SDS011;25881;47.462;19.304;2024-02-16T06:24:06;36.77;;;23.80;;
40162;SDS011;25881;47.462;19.304;2024-02-16T06:26:32;39.05;;;24.15;;
40162;SDS011;25881;47.462;19.304;2024-02-16T06:28:57;32.33;;;21.43;;
40162;SDS011;25881;47.462;19.304;2024-02-16T06:31:23;37.60;;;24.77;;
40162;SDS011;25881;47.462;19.304;2024-02-16T06:33:48;38.17;;;25.07;;
40162;SDS011;25881;47.462;19.304;2024-02-16T06:36:13;37.13;;;23.67;;
40162;SDS011;25881;47.462;19.304;2024-02-16T06:38:38;39.20;;;23.47;;
40162;SDS011;25881;47.462;19.304;2024-02-16T06:41:04;38.33;;;22.77;;
40162;SDS011;25881;47.462;19.304;2024-02-16T06:43:29;36.57;;;22.23;;
40162;SDS011;25881;47.462;19.304;2024-02-16T06:45:54;37.60;;;22.00;;
40162;SDS011;25881;47.462;19.304;2024-02-16T06:48:21;33.05;;;22.05;;
40162;SDS011;25881;47.462;19.304;2024-02-16T06:50:47;32.30;;;20.63;;
40162;SDS011;25881;47.462;19.304;2024-02-16T06:53:12;38.77;;;21.83;;
40162;SDS011;25881;47.462;19.304;2024-02-16T06:55:37;37.60;;;21.43;;
40162;SDS011;25881;47.462;19.304;2024-02-16T06:58:02;38.27;;;23.20;;
40162;SDS011;25881;47.462;19.304;2024-02-16T07:00:28;48.33;;;25.60;;
40162;SDS011;25881;47.462;19.304;2024-02-16T07:02:53;37.53;;;23.10;;
40162;SDS011;25881;47.462;19.304;2024-02-16T07:05:19;36.77;;;22.27;;
40162;SDS011;25881;47.462;19.304;2024-02-16T07:07:44;30.75;;;21.73;;
40162;SDS011;25881;47.462;19.304;2024-02-16T07:10:09;29.50;;;19.70;;
40162;SDS011;25881;47.462;19.304;2024-02-16T07:15:03;33.30;;;19.70;;
40162;SDS011;25881;47.462;19.304;2024-02-16T07:17:28;32.90;;;20.30;;
40162;SDS011;25881;47.462;19.304;2024-02-16T07:19:54;34.95;;;21.83;;
40162;SDS011;25881;47.462;19.304;2024-02-16T07:22:19;35.90;;;20.27;;
40162;SDS011;25881;47.462;19.304;2024-02-16T07:24:44;31.40;;;21.00;;
40162;SDS011;25881;47.462;19.304;2024-02-16T07:27:09;30.77;;;19.70;;
40162;SDS011;25881;47.462;19.304;2024-02-16T07:29:35;35.13;;;21.90;;
40162;SDS011;25881;47.462;19.304;2024-02-16T07:32:03;33.17;;;20.27;;
40162;SDS011;25881;47.462;19.304;2024-02-16T07:34:28;31.50;;;20.52;;
40162;SDS011;25881;47.462;19.304;2024-02-16T07:36:53;29.70;;;19.42;;
40162;SDS011;25881;47.462;19.304;2024-02-16T07:39:19;33.30;;;18.02;;
40162;SDS011;25881;47.462;19.304;2024-02-16T07:41:47;29.05;;;17.27;;
40162;SDS011;25881;47.462;19.304;2024-02-16T07:44:12;26.93;;;17.40;;
40162;SDS011;25881;47.462;19.304;2024-02-16T07:46:41;21.20;;;14.57;;
40162;SDS011;25881;47.462;19.304;2024-02-16T07:49:06;25.95;;;14.65;;
40162;SDS011;25881;47.462;19.304;2024-02-16T07:51:31;27.73;;;16.70;;
40162;SDS011;25881;47.462;19.304;2024-02-16T07:53:57;25.95;;;16.60;;
40162;SDS011;25881;47.462;19.304;2024-02-16T07:56:22;25.97;;;16.80;;
40162;SDS011;25881;47.462;19.304;2024-02-16T07:58:47;29.93;;;17.37;;
40162;SDS011;25881;47.462;19.304;2024-02-16T08:01:12;29.20;;;16.70;;
40162;SDS011;25881;47.462;19.304;2024-02-16T08:03:40;27.35;;;16.08;;
40162;SDS011;25881;47.462;19.304;2024-02-16T08:06:06;25.75;;;17.02;;
40162;SDS011;25881;47.462;19.304;2024-02-16T08:08:31;28.80;;;18.02;;
40162;SDS011;25881;47.462;19.304;2024-02-16T08:10:56;25.00;;;16.13;;
40162;SDS011;25881;47.462;19.304;2024-02-16T08:13:22;28.27;;;16.70;;
40162;SDS011;25881;47.462;19.304;2024-02-16T08:15:47;31.85;;;18.48;;
40162;SDS011;25881;47.462;19.304;2024-02-16T08:18:13;29.23;;;18.52;;
40162;SDS011;25881;47.462;19.304;2024-02-16T08:20:38;30.57;;;18.50;;
40162;SDS011;25881;47.462;19.304;2024-02-16T08:23:04;28.80;;;15.70;;
40162;SDS011;25881;47.462;19.304;2024-02-16T08:25:29;30.03;;;16.90;;
40162;SDS011;25881;47.462;19.304;2024-02-16T08:27:55;20.65;;;14.15;;
40162;SDS011;25881;47.462;19.304;2024-02-16T08:30:20;17.55;;;12.63;;
40162;SDS011;25881;47.462;19.304;2024-02-16T08:32:46;20.38;;;15.20;;
40162;SDS011;25881;47.462;19.304;2024-02-16T08:35:11;24.53;;;14.30;;
40162;SDS011;25881;47.462;19.304;2024-02-16T08:37:39;22.95;;;13.57;;
40162;SDS011;25881;47.462;19.304;2024-02-16T08:40:04;19.30;;;13.27;;
40162;SDS011;25881;47.462;19.304;2024-02-16T08:42:30;22.20;;;12.13;;
40162;SDS011;25881;47.462;19.304;2024-02-16T08:44:56;18.98;;;11.65;;
40162;SDS011;25881;47.462;19.304;2024-02-16T08:47:23;22.15;;;13.73;;
40162;SDS011;25881;47.462;19.304;2024-02-16T08:49:48;19.92;;;12.10;;
40162;SDS011;25881;47.462;19.304;2024-02-16T08:52:13;21.93;;;13.73;;
40162;SDS011;25881;47.462;19.304;2024-02-16T08:54:39;22.23;;;14.25;;
40162;SDS011;25881;47.462;19.304;2024-02-16T08:57:04;22.03;;;14.43;;
40162;SDS011;25881;47.462;19.304;2024-02-16T08:59:30;20.63;;;13.68;;
40162;SDS011;25881;47.462;19.304;2024-02-16T09:01:55;21.07;;;14.60;;
40162;SDS011;25881;47.462;19.304;2024-02-16T09:04:21;22.67;;;14.47;;
40162;SDS011;25881;47.462;19.304;2024-02-16T09:06:46;26.47;;;15.07;;
40162;SDS011;25881;47.462;19.304;2024-02-16T09:09:12;25.00;;;15.15;;
40162;SDS011;25881;47.462;19.304;2024-02-16T09:11:37;25.00;;;16.30;;
40162;SDS011;25881;47.462;19.304;2024-02-16T09:14:02;26.37;;;15.83;;
40162;SDS011;25881;47.462;19.304;2024-02-16T09:16:28;23.27;;;15.82;;
40162;SDS011;25881;47.462;19.304;2024-02-16T09:18:53;24.27;;;16.17;;
40162;SDS011;25881;47.462;19.304;2024-02-16T09:21:19;27.60;;;17.63;;
40162;SDS011;25881;47.462;19.304;2024-02-16T09:23:44;28.20;;;15.85;;
40162;SDS011;25881;47.462;19.304;2024-02-16T09:26:09;25.90;;;15.97;;
40162;SDS011;25881;47.462;19.304;2024-02-16T09:28:38;25.13;;;16.20;;
40162;SDS011;25881;47.462;19.304;2024-02-16T09:31:05;30.40;;;17.13;;
40162;SDS011;25881;47.462;19.304;2024-02-16T09:33:30;24.97;;;15.83;;
40162;SDS011;25881;47.462;19.304;2024-02-16T09:35:55;23.27;;;15.07;;
40162;SDS011;25881;47.462;19.304;2024-02-16T09:38:20;32.83;;;16.50;;
40162;SDS011;25881;47.462;19.304;2024-02-16T09:40:46;28.67;;;16.33;;
40162;SDS011;25881;47.462;19.304;2024-02-16T09:43:22;24.20;;;15.33;;
40162;SDS011;25881;47.462;19.304;2024-02-16T09:45:51;23.23;;;13.10;;
40162;SDS011;25881;47.462;19.304;2024-02-16T09:48:16;19.73;;;13.55;;
40162;SDS011;25881;47.462;19.304;2024-02-16T09:50:42;19.27;;;13.07;;
40162;SDS011;25881;47.462;19.304;2024-02-16T09:53:07;21.27;;;12.87;;
40162;SDS011;25881;47.462;19.304;2024-02-16T09:55:33;22.60;;;14.73;;
40162;SDS011;25881;47.462;19.304;2024-02-16T09:57:59;22.83;;;15.02;;
40162;SDS011;25881;47.462;19.304;2024-02-16T10:00:24;22.67;;;15.60;;
40162;SDS011;25881;47.462;19.304;2024-02-16T10:02:50;19.67;;;14.30;;
40162;SDS011;25881;47.462;19.304;2024-02-16T10:05:21;27.50;;;15.57;;
40162;SDS011;25881;47.462;19.304;2024-02-16T10:07:47;23.05;;;14.00;;
40162;SDS011;25881;47.462;19.304;2024-02-16T10:10:24;21.77;;;14.07;;
40162;SDS011;25881;47.462;19.304;2024-02-16T10:12:50;22.77;;;13.35;;
40162;SDS011;25881;47.462;19.304;2024-02-16T10:15:25;19.98;;;13.57;;
40162;SDS011;25881;47.462;19.304;2024-02-16T10:17:59;24.00;;;14.37;;
40162;SDS011;25881;47.462;19.304;2024-02-16T10:20:25;22.27;;;13.82;;
40162;SDS011;25881;47.462;19.304;2024-02-16T10:23:01;25.10;;;14.75;;
40162;SDS011;25881;47.462;19.304;2024-02-16T10:25:27;24.88;;;14.80;;
40162;SDS011;25881;47.462;19.304;2024-02-16T10:27:53;22.33;;;14.07;;
40162;SDS011;25881;47.462;19.304;2024-02-16T10:30:20;23.90;;;15.60;;
40162;SDS011;25881;47.462;19.304;2024-02-16T10:32:47;25.13;;;16.20;;
40162;SDS011;25881;47.462;19.304;2024-02-16T10:35:12;23.98;;;14.15;;
40162;SDS011;25881;47.462;19.304;2024-02-16T10:37:39;22.80;;;14.88;;
40162;SDS011;25881;47.462;19.304;2024-02-16T10:40:05;28.40;;;18.25;;
40162;SDS011;25881;47.462;19.304;2024-02-16T10:42:32;39.25;;;19.92;;
40162;SDS011;25881;47.462;19.304;2024-02-16T10:44:59;27.35;;;16.85;;
40162;SDS011;25881;47.462;19.304;2024-02-16T10:47:25;21.15;;;14.13;;
40162;SDS011;25881;47.462;19.304;2024-02-16T10:49:50;25.75;;;14.30;;
40162;SDS011;25881;47.462;19.304;2024-02-16T10:52:16;21.10;;;13.20;;
40162;SDS011;25881;47.462;19.304;2024-02-16T10:54:43;22.95;;;13.70;;
40162;SDS011;25881;47.462;19.304;2024-02-16T10:57:09;23.80;;;13.82;;
40162;SDS011;25881;47.462;19.304;2024-02-16T10:59:46;22.92;;;15.63;;
40162;SDS011;25881;47.462;19.304;2024-02-16T11:02:12;22.58;;;14.75;;
40162;SDS011;25881;47.462;19.304;2024-02-16T11:04:39;23.98;;;14.65;;
40162;SDS011;25881;47.462;19.304;2024-02-16T11:07:11;23.60;;;15.82;;
40162;SDS011;25881;47.462;19.304;2024-02-16T11:09:38;21.88;;;14.57;;
40162;SDS011;25881;47.462;19.304;2024-02-16T11:12:04;22.52;;;14.40;;
40162;SDS011;25881;47.462;19.304;2024-02-16T11:14:36;25.92;;;15.30;;
40162;SDS011;25881;47.462;19.304;2024-02-16T11:17:02;23.65;;;14.40;;
40162;SDS011;25881;47.462;19.304;2024-02-16T11:19:29;24.08;;;15.65;;
40162;SDS011;25881;47.462;19.304;2024-02-16T11:21:55;25.35;;;15.90;;
40162;SDS011;25881;47.462;19.304;2024-02-16T11:24:27;24.60;;;16.23;;
40162;SDS011;25881;47.462;19.304;2024-02-16T11:26:52;22.17;;;13.77;;
40162;SDS011;25881;47.462;19.304;2024-02-16T11:29:19;20.38;;;14.27;;
40162;SDS011;25881;47.462;19.304;2024-02-16T11:31:45;20.92;;;15.13;;
40162;SDS011;25881;47.462;19.304;2024-02-16T11:34:10;25.40;;;15.88;;
40162;SDS011;25881;47.462;19.304;2024-02-16T11:36:45;22.73;;;13.57;;
40162;SDS011;25881;47.462;19.304;2024-02-16T11:39:13;23.10;;;14.07;;
40162;SDS011;25881;47.462;19.304;2024-02-16T11:41:41;23.60;;;14.60;;
40162;SDS011;25881;47.462;19.304;2024-02-16T11:44:06;22.85;;;13.10;;
40162;SDS011;25881;47.462;19.304;2024-02-16T11:46:31;21.07;;;14.03;;
40162;SDS011;25881;47.462;19.304;2024-02-16T11:49:07;24.10;;;14.50;;
40162;SDS011;25881;47.462;19.304;2024-02-16T11:51:32;25.15;;;14.43;;
40162;SDS011;25881;47.462;19.304;2024-02-16T11:53:58;17.33;;;12.30;;
40162;SDS011;25881;47.462;19.304;2024-02-16T11:56:23;20.48;;;12.98;;
40162;SDS011;25881;47.462;19.304;2024-02-16T12:01:17;17.27;;;11.30;;
40162;SDS011;25881;47.462;19.304;2024-02-16T12:03:42;19.27;;;12.37;;
40162;SDS011;25881;47.462;19.304;2024-02-16T12:06:07;18.07;;;11.13;;
40162;SDS011;25881;47.462;19.304;2024-02-16T12:08:33;16.93;;;10.27;;
40162;SDS011;25881;47.462;19.304;2024-02-16T12:10:59;16.13;;;11.13;;
40162;SDS011;25881;47.462;19.304;2024-02-16T12:13:24;17.95;;;12.55;;
40162;SDS011;25881;47.462;19.304;2024-02-16T12:15:50;18.90;;;10.90;;
40162;SDS011;25881;47.462;19.304;2024-02-16T12:18:22;17.77;;;10.82;;
40162;SDS011;25881;47.462;19.304;2024-02-16T12:23:26;16.30;;;11.10;;
40162;SDS011;25881;47.462;19.304;2024-02-16T12:25:51;16.17;;;10.65;;
40162;SDS011;25881;47.462;19.304;2024-02-16T12:28:16;17.33;;;10.37;;
40162;SDS011;25881;47.462;19.304;2024-02-16T12:30:41;18.10;;;11.53;;
40162;SDS011;25881;47.462;19.304;2024-02-16T12:33:07;16.87;;;11.17;;
40162;SDS011;25881;47.462;19.304;2024-02-16T12:35:32;21.60;;;10.93;;
40162;SDS011;25881;47.462;19.304;2024-02-16T12:37:57;20.90;;;11.83;;
40162;SDS011;25881;47.462;19.304;2024-02-16T12:40:22;20.30;;;12.07;;
40162;SDS011;25881;47.462;19.304;2024-02-16T12:42:47;22.93;;;12.00;;
40162;SDS011;25881;47.462;19.304;2024-02-16T12:45:13;15.90;;;10.77;;
40162;SDS011;25881;47.462;19.304;2024-02-16T12:47:38;15.43;;;9.13;;
40162;SDS011;25881;47.462;19.304;2024-02-16T12:50:03;13.47;;;9.00;;
40162;SDS011;25881;47.462;19.304;2024-02-16T12:52:29;17.48;;;9.88;;
40162;SDS011;25881;47.462;19.304;2024-02-16T12:54:54;16.53;;;10.53;;
40162;SDS011;25881;47.462;19.304;2024-02-16T12:57:23;54.15;;;12.77;;
40162;SDS011;25881;47.462;19.304;2024-02-16T12:59:48;15.97;;;11.20;;
40162;SDS011;25881;47.462;19.304;2024-02-16T13:02:14;20.05;;;9.68;;
40162;SDS011;25881;47.462;19.304;2024-02-16T13:04:39;16.47;;;9.93;;
40162;SDS011;25881;47.462;19.304;2024-02-16T13:07:05;18.38;;;11.07;;
40162;SDS011;25881;47.462;19.304;2024-02-16T13:09:30;13.55;;;9.95;;
40162;SDS011;25881;47.462;19.304;2024-02-16T13:11:56;14.25;;;9.07;;
40162;SDS011;25881;47.462;19.304;2024-02-16T13:14:21;12.52;;;8.75;;
40162;SDS011;25881;47.462;19.304;2024-02-16T13:16:46;11.38;;;8.40;;
40162;SDS011;25881;47.462;19.304;2024-02-16T13:19:12;13.43;;;9.23;;
40162;SDS011;25881;47.462;19.304;2024-02-16T13:21:38;14.25;;;9.00;;
40162;SDS011;25881;47.462;19.304;2024-02-16T13:24:03;15.13;;;9.87;;
40162;SDS011;25881;47.462;19.304;2024-02-16T13:26:29;16.05;;;10.48;;
40162;SDS011;25881;47.462;19.304;2024-02-16T13:28:55;16.83;;;10.45;;
40162;SDS011;25881;47.462;19.304;2024-02-16T13:31:20;12.95;;;9.23;;
40162;SDS011;25881;47.462;19.304;2024-02-16T13:33:45;14.20;;;9.75;;
40162;SDS011;25881;47.462;19.304;2024-02-16T13:36:11;16.83;;;10.27;;
40162;SDS011;25881;47.462;19.304;2024-02-16T13:38:36;15.13;;;10.30;;
40162;SDS011;25881;47.462;19.304;2024-02-16T13:41:01;13.45;;;9.20;;
40162;SDS011;25881;47.462;19.304;2024-02-16T13:43:26;16.87;;;10.60;;
40162;SDS011;25881;47.462;19.304;2024-02-16T13:45:53;17.25;;;10.50;;
40162;SDS011;25881;47.462;19.304;2024-02-16T13:48:18;13.82;;;10.25;;
40162;SDS011;25881;47.462;19.304;2024-02-16T13:50:45;14.95;;;9.38;;
40162;SDS011;25881;47.462;19.304;2024-02-16T13:53:10;19.05;;;11.57;;
40162;SDS011;25881;47.462;19.304;2024-02-16T13:55:36;15.20;;;11.38;;
40162;SDS011;25881;47.462;19.304;2024-02-16T13:58:01;17.17;;;11.53;;
40162;SDS011;25881;47.462;19.304;2024-02-16T14:00:26;16.42;;;10.75;;
40162;SDS011;25881;47.462;19.304;2024-02-16T14:02:51;15.47;;;11.07;;
40162;SDS011;25881;47.462;19.304;2024-02-16T14:05:17;14.17;;;9.97;;
40162;SDS011;25881;47.462;19.304;2024-02-16T14:07:42;14.83;;;10.30;;
40162;SDS011;25881;47.462;19.304;2024-02-16T14:10:07;15.97;;;10.53;;